Time;durP1;ratioP1;P1;durP2;ratioP2;P2;SDS_P1;SDS_P2;PMS_P1;PMS_P2;Temp;Humidity;BMP_temperature;BMP_pressure;BME280_temperature;BME280_humidity;BME280_pressure;Samples;Min_cycle;Max_cycle;Signal;HPM_P1;HPM_P2
2023/03/21 00:02:02;;;;;;;1.77;1.10;;;19.10;87.80;;;;;;5101313;28;20075;-68
2023/03/21 00:04:28;;;;;;;1.52;1.02;;;19.10;87.80;;;;;;5103087;28;20043;-68
2023/03/21 00:06:54;;;;;;;1.50;1.10;;;19.10;87.80;;;;;;5103623;28;20051;-67
2023/03/21 00:09:20;;;;;;;2.15;1.10;;;19.10;87.80;;;;;;5102747;28;20039;-68
2023/03/21 00:11:47;;;;;;;2.00;1.02;;;19.00;87.70;;;;;;5103092;28;20542;-68
2023/03/21 00:14:17;;;;;;;1.50;1.00;;;19.00;87.70;;;;;;5103799;28;20136;-68
2023/03/21 00:16:44;;;;;;;2.13;1.20;;;19.10;88.40;;;;;;5104429;28;20415;-68
2023/03/21 00:19:11;;;;;;;2.10;1.33;;;19.10;87.80;;;;;;5102128;28;20079;-68
2023/03/21 00:21:37;;;;;;;1.90;0.90;;;19.00;87.80;;;;;;5104484;28;20486;-68
2023/03/21 00:24:04;;;;;;;2.03;1.13;;;19.00;87.80;;;;;;5112077;27;20058;-68
2023/03/21 00:26:31;;;;;;;1.80;1.15;;;19.00;87.90;;;;;;5103978;28;20130;-68
2023/03/21 00:28:56;;;;;;;1.48;1.00;;;19.00;87.90;;;;;;5103458;28;20108;-68
2023/03/21 00:31:22;;;;;;;1.30;0.80;;;19.00;87.90;;;;;;5103704;28;20423;-68
2023/03/21 00:33:48;;;;;;;1.90;1.08;;;19.00;88.00;;;;;;5102539;28;20043;-68
2023/03/21 00:36:14;;;;;;;2.25;1.10;;;18.90;88.00;;;;;;5103128;28;20071;-68
2023/03/21 00:38:40;;;;;;;2.08;1.08;;;19.00;88.00;;;;;;5103622;28;20048;-68
2023/03/21 00:41:08;;;;;;;1.65;1.10;;;18.90;88.00;;;;;;5102565;28;20085;-68
2023/03/21 00:43:34;;;;;;;1.90;1.00;;;19.00;88.00;;;;;;5101555;28;20161;-68
2023/03/21 00:46:00;;;;;;;1.40;0.98;;;19.00;88.10;;;;;;5116804;27;20493;-68
2023/03/21 00:48:26;;;;;;;1.70;1.00;;;18.90;88.10;;;;;;5123863;27;20039;-68
2023/03/21 00:50:55;;;;;;;1.70;1.00;;;18.90;88.10;;;;;;5122775;28;20127;-68
2023/03/21 00:53:22;;;;;;;1.73;1.00;;;18.90;88.10;;;;;;5122604;28;20385;-68
2023/03/21 00:55:48;;;;;;;1.58;0.93;;;18.90;88.10;;;;;;5123434;28;20039;-68
2023/03/21 00:58:15;;;;;;;1.77;1.13;;;18.90;88.10;;;;;;5124543;27;20031;-68
2023/03/21 01:00:41;;;;;;;1.25;0.98;;;18.90;88.10;;;;;;5122815;27;20409;-67
2023/03/21 01:03:10;;;;;;;1.35;0.90;;;18.90;88.20;;;;;;5123986;27;20596;-67
2023/03/21 01:06:04;;;;;;;1.42;1.00;;;19.00;88.20;;;;;;5124223;27;20485;-67
2023/03/21 01:08:35;;;;;;;1.42;1.10;;;18.90;88.20;;;;;;5125536;27;20046;-67
2023/03/21 01:11:05;;;;;;;1.30;0.90;;;18.90;88.20;;;;;;5128095;27;20039;-66
2023/03/21 01:13:30;;;;;;;1.50;1.00;;;18.90;88.20;;;;;;5126360;27;20062;-67
2023/03/21 01:15:56;;;;;;;2.17;1.13;;;18.90;88.30;;;;;;5128055;27;20466;-67
2023/03/21 01:18:27;;;;;;;1.13;0.98;;;18.90;88.30;;;;;;5127630;27;20194;-66
2023/03/21 01:20:55;;;;;;;1.27;0.88;;;18.90;88.30;;;;;;5127180;27;20119;-67
2023/03/21 01:23:22;;;;;;;1.30;0.90;;;18.90;88.30;;;;;;5127679;27;20039;-66
2023/03/21 01:25:49;;;;;;;1.55;1.10;;;18.90;88.40;;;;;;5127128;27;20047;-67
2023/03/21 01:28:15;;;;;;;1.60;1.20;;;18.90;88.40;;;;;;5127974;27;20051;-67
2023/03/21 01:30:45;;;;;;;2.30;1.30;;;18.80;88.30;;;;;;5127591;27;20413;-66
2023/03/21 01:33:12;;;;;;;1.98;1.30;;;18.90;88.40;;;;;;5127883;27;20043;-67
2023/03/21 01:35:37;;;;;;;1.80;1.27;;;18.80;88.30;;;;;;5127190;27;20445;-67
2023/03/21 01:38:03;;;;;;;1.70;1.20;;;18.80;88.30;;;;;;5127102;27;20039;-67
2023/03/21 01:40:29;;;;;;;2.22;1.42;;;18.80;88.30;;;;;;5127362;27;20072;-67
2023/03/21 01:42:55;;;;;;;2.13;1.20;;;18.80;88.30;;;;;;5127569;27;20039;-67
2023/03/21 01:45:59;;;;;;;1.33;1.02;;;18.80;88.30;;;;;;5119763;27;20073;-66
2023/03/21 01:48:27;;;;;;;2.67;1.10;;;18.80;88.30;;;;;;5106793;28;20048;-67
2023/03/21 01:50:54;;;;;;;1.95;1.30;;;18.80;88.40;;;;;;5105914;28;20047;-67
2023/03/21 01:53:28;;;;;;;2.60;1.45;;;18.80;88.40;;;;;;5105658;28;20092;-67
2023/03/21 01:55:56;;;;;;;;;;;18.80;88.40;;;;;;5105878;28;20053;-67
2023/03/21 01:58:22;;;;;;;1.73;1.23;;;18.80;88.40;;;;;;5106274;28;20520;-67
2023/03/21 02:00:50;;;;;;;2.38;1.38;;;18.80;88.40;;;;;;5106515;28;20088;-67
2023/03/21 02:03:16;;;;;;;1.98;1.17;;;18.80;88.40;;;;;;5105251;28;20059;-67
2023/03/21 02:05:48;;;;;;;2.30;1.42;;;18.70;88.40;;;;;;5106000;28;20081;-67
2023/03/21 02:08:14;;;;;;;2.90;1.60;;;18.70;88.40;;;;;;5106949;28;20046;-67
2023/03/21 02:10:44;;;;;;;2.70;1.63;;;18.70;88.40;;;;;;5104289;28;20118;-67
2023/03/21 02:13:10;;;;;;;3.25;1.60;;;18.70;88.40;;;;;;5105906;27;20048;-67
2023/03/21 02:15:39;;;;;;;2.70;1.50;;;18.70;88.40;;;;;;5106500;28;20044;-67
2023/03/21 02:18:37;;;;;;;3.15;1.60;;;18.70;88.40;;;;;;5105722;28;20042;-67
2023/03/21 02:21:14;;;;;;;2.25;1.38;;;18.80;88.50;;;;;;5106174;28;20414;-67
2023/03/21 02:24:13;;;;;;;3.22;1.55;;;18.70;88.50;;;;;;5094247;27;20096;-66
2023/03/21 02:27:11;;;;;;;2.50;1.63;;;18.70;88.50;;;;;;5124624;27;20438;-67
2023/03/21 02:29:39;;;;;;;2.40;1.40;;;18.70;88.50;;;;;;5126734;27;20130;-67
2023/03/21 02:32:12;;;;;;;2.05;1.25;;;18.70;88.60;;;;;;5125987;27;20043;-66
2023/03/21 02:34:50;;;;;;;2.25;1.42;;;18.70;88.50;;;;;;5126300;27;20086;-67
2023/03/21 02:37:40;;;;;;;2.88;1.48;;;18.70;88.50;;;;;;5127044;27;20043;-67
2023/03/21 02:40:11;;;;;;;2.47;1.30;;;18.70;88.60;;;;;;5126072;27;20081;-67
2023/03/21 02:42:47;;;;;;;2.20;1.33;;;18.70;88.60;;;;;;5126837;27;20043;-67
2023/03/21 02:45:18;;;;;;;1.73;1.23;;;18.60;88.60;;;;;;5118629;27;20059;-67
2023/03/21 02:47:51;;;;;;;2.17;1.50;;;18.60;88.60;;;;;;5112416;27;20119;-67
2023/03/21 02:50:48;;;;;;;2.20;1.35;;;18.60;88.60;;;;;;5105847;28;20371;-67
2023/03/21 02:53:18;;;;;;;2.03;1.25;;;18.60;88.60;;;;;;5093036;28;20134;-67
2023/03/21 02:55:45;;;;;;;2.28;1.30;;;18.60;88.60;;;;;;5105679;28;20398;-66
2023/03/21 02:58:16;;;;;;;1.88;1.25;;;18.70;88.70;;;;;;5105628;28;20097;-67
2023/03/21 03:00:43;;;;;;;1.70;1.20;;;18.60;88.60;;;;;;5103984;28;20104;-67
2023/03/21 03:03:11;;;;;;;2.13;1.40;;;18.60;88.60;;;;;;5086559;28;20530;-67
2023/03/21 03:05:42;;;;;;;2.00;1.40;;;18.60;88.60;;;;;;5105786;28;20113;-66
2023/03/21 03:08:33;;;;;;;2.35;1.42;;;18.60;88.70;;;;;;5104993;28;20051;-67
2023/03/21 03:11:11;;;;;;;2.03;1.30;;;18.60;88.60;;;;;;5105496;28;20131;-67
2023/03/21 03:13:50;;;;;;;2.25;1.38;;;18.60;88.60;;;;;;5105239;28;20054;-66
2023/03/21 03:16:54;;;;;;;1.50;1.20;;;18.60;88.70;;;;;;5105659;28;20048;-67
2023/03/21 03:19:33;;;;;;;1.55;1.10;;;18.60;88.70;;;;;;5144192;22;20048;-67
2023/03/21 03:22:16;;;;;;;2.20;1.20;;;18.60;88.70;;;;;;5039603;28;20041;-67
2023/03/21 03:24:50;;;;;;;1.80;1.23;;;18.60;88.70;;;;;;5032059;28;20041;-68
2023/03/21 03:27:21;;;;;;;1.92;1.27;;;18.60;88.70;;;;;;5024085;28;20046;-68
2023/03/21 03:29:49;;;;;;;2.00;1.30;;;18.60;88.70;;;;;;5023108;28;20103;-68
2023/03/21 03:32:24;;;;;;;1.95;1.30;;;18.60;88.70;;;;;;5023856;28;20053;-67
2023/03/21 03:34:55;;;;;;;;;;;18.50;88.60;;;;;;5024892;28;20092;-67
2023/03/21 03:37:25;;;;;;;1.98;1.38;;;18.60;88.70;;;;;;5022638;28;19932;-66
2023/03/21 03:40:06;;;;;;;1.90;1.10;;;18.60;88.70;;;;;;5022866;28;20049;-67
2023/03/21 03:42:40;;;;;;;2.00;1.30;;;18.50;88.70;;;;;;5022655;28;20049;-67
2023/03/21 03:45:08;;;;;;;2.38;1.42;;;18.60;88.70;;;;;;5027424;28;20046;-66
2023/03/21 03:47:42;;;;;;;2.50;1.38;;;18.60;88.80;;;;;;5030245;28;20045;-66
2023/03/21 03:50:21;;;;;;;1.58;1.17;;;18.60;88.80;;;;;;5020732;28;20049;-66
2023/03/21 03:52:54;;;;;;;1.92;1.00;;;18.50;88.70;;;;;;5023734;28;20057;-67
2023/03/21 03:55:22;;;;;;;1.75;1.05;;;18.50;88.70;;;;;;5021919;28;20060;-66
2023/03/21 03:57:48;;;;;;;1.80;1.20;;;18.50;88.80;;;;;;5023685;28;20088;-67
2023/03/21 04:00:16;;;;;;;1.60;1.27;;;18.50;88.70;;;;;;5023320;28;20531;-67
2023/03/21 04:02:42;;;;;;;1.58;1.10;;;18.50;88.70;;;;;;5023640;28;20458;-67
2023/03/21 04:05:08;;;;;;;1.50;1.00;;;18.50;88.80;;;;;;5022480;28;20106;-67
2023/03/21 04:07:34;;;;;;;2.75;1.05;;;18.50;88.70;;;;;;5022787;28;20048;-66
2023/03/21 04:10:00;;;;;;;1.85;1.13;;;18.50;88.80;;;;;;5021433;28;20088;-67
2023/03/21 04:12:25;;;;;;;1.67;1.08;;;18.50;88.70;;;;;;5037666;28;20045;-67
2023/03/21 04:14:51;;;;;;;1.52;1.00;;;18.50;88.80;;;;;;5024006;28;20046;-67
2023/03/21 04:17:18;;;;;;;1.27;0.95;;;18.50;88.80;;;;;;5022768;28;20114;-67
2023/03/21 04:19:45;;;;;;;1.77;1.02;;;18.50;88.80;;;;;;5022376;28;20096;-67
2023/03/21 04:22:11;;;;;;;1.83;1.20;;;18.50;88.80;;;;;;5023506;28;20045;-67
2023/03/21 04:24:38;;;;;;;1.60;1.10;;;18.50;88.80;;;;;;5022063;28;20033;-66
2023/03/21 04:27:04;;;;;;;1.83;1.08;;;18.50;88.80;;;;;;5023364;28;20088;-67
2023/03/21 04:29:31;;;;;;;1.38;1.00;;;18.50;88.80;;;;;;5025929;28;20522;-67
2023/03/21 04:31:56;;;;;;;1.38;1.00;;;18.40;88.70;;;;;;5027707;28;20503;-67
2023/03/21 04:34:27;;;;;;;1.60;1.00;;;18.50;88.80;;;;;;5022968;28;20049;-67
2023/03/21 04:36:55;;;;;;;1.52;1.10;;;18.50;88.80;;;;;;5022664;28;20064;-66
2023/03/21 04:39:21;;;;;;;1.95;1.10;;;18.40;88.70;;;;;;5023194;28;20583;-66
2023/03/21 04:41:48;;;;;;;1.80;1.10;;;18.40;88.70;;;;;;5024267;28;20045;-67
2023/03/21 04:44:15;;;;;;;2.30;1.10;;;18.40;88.70;;;;;;5028262;28;20045;-67
2023/03/21 04:46:41;;;;;;;1.50;1.10;;;18.40;88.70;;;;;;5042316;28;20081;-67
2023/03/21 04:49:07;;;;;;;1.58;1.00;;;18.40;88.70;;;;;;5026281;28;20095;-67
2023/03/21 04:51:34;;;;;;;2.10;1.40;;;18.40;88.70;;;;;;5027200;28;20053;-67
2023/03/21 04:53:59;;;;;;;1.67;1.00;;;18.40;88.70;;;;;;5025742;28;20041;-67
2023/03/21 04:56:32;;;;;;;1.98;1.25;;;18.40;88.70;;;;;;5028018;28;20048;-67
2023/03/21 04:59:00;;;;;;;1.30;0.90;;;18.40;88.70;;;;;;5025810;28;20053;-67
2023/03/21 05:01:29;;;;;;;1.40;0.90;;;18.40;88.70;;;;;;5027007;28;20037;-67
2023/03/21 05:03:56;;;;;;;1.60;1.00;;;18.40;88.70;;;;;;5026965;28;20045;-67
2023/03/21 05:06:22;;;;;;;1.48;1.10;;;18.40;88.70;;;;;;5027100;28;20416;-67
2023/03/21 05:08:48;;;;;;;1.52;1.23;;;18.40;88.70;;;;;;5025456;28;20044;-67
2023/03/21 05:11:13;;;;;;;1.60;1.10;;;18.40;88.80;;;;;;5025472;28;20810;-67
2023/03/21 05:13:39;;;;;;;2.00;1.10;;;18.40;88.70;;;;;;5026574;28;20415;-66
2023/03/21 05:16:05;;;;;;;0.98;0.80;;;18.30;88.70;;;;;;5026979;28;20085;-67
2023/03/21 05:18:33;;;;;;;1.73;1.00;;;18.30;88.70;;;;;;5025418;28;20046;-67
2023/03/21 05:20:59;;;;;;;1.27;0.98;;;18.30;88.70;;;;;;5026428;28;20917;-67
2023/03/21 05:23:25;;;;;;;1.40;1.10;;;18.30;88.70;;;;;;5024199;28;20050;-67
2023/03/21 05:25:50;;;;;;;1.40;1.00;;;18.30;88.70;;;;;;5025938;28;20675;-67
2023/03/21 05:28:19;;;;;;;1.40;1.00;;;18.30;88.70;;;;;;5026281;28;20037;-67
2023/03/21 05:30:45;;;;;;;1.40;1.00;;;18.40;88.70;;;;;;5026104;28;20111;-67
2023/03/21 05:33:11;;;;;;;1.65;1.10;;;18.30;88.70;;;;;;5025635;28;20041;-67
2023/03/21 05:35:37;;;;;;;2.15;1.23;;;18.30;88.70;;;;;;5025765;28;20049;-67
2023/03/21 05:38:03;;;;;;;1.50;1.13;;;18.30;88.70;;;;;;5024712;28;20455;-67
2023/03/21 05:40:30;;;;;;;1.50;1.00;;;18.30;88.70;;;;;;5025885;28;20042;-67
2023/03/21 05:42:55;;;;;;;1.50;1.00;;;18.30;88.70;;;;;;5024932;28;20050;-67
2023/03/21 05:45:21;;;;;;;1.33;1.13;;;18.30;88.70;;;;;;5036333;28;20488;-66
2023/03/21 05:47:47;;;;;;;1.10;0.90;;;18.30;88.70;;;;;;5030866;28;20048;-67
2023/03/21 05:50:13;;;;;;;1.52;0.90;;;18.30;88.70;;;;;;5025103;28;20042;-67
2023/03/21 05:52:39;;;;;;;1.75;0.90;;;18.30;88.70;;;;;;5025006;28;20077;-67
2023/03/21 05:55:06;;;;;;;1.65;1.20;;;18.30;88.70;;;;;;5023252;28;20049;-67
2023/03/21 05:57:33;;;;;;;1.67;1.02;;;18.30;88.70;;;;;;5025841;28;20034;-67
2023/03/21 06:00:00;;;;;;;1.88;1.20;;;18.30;88.70;;;;;;5025232;28;20627;-67
2023/03/21 06:02:26;;;;;;;1.17;0.90;;;18.30;88.70;;;;;;5026502;28;20061;-67
2023/03/21 06:04:52;;;;;;;1.05;0.80;;;18.30;88.70;;;;;;5025715;28;20404;-67
2023/03/21 06:07:18;;;;;;;1.27;1.00;;;18.30;88.70;;;;;;5024962;28;20053;-67
2023/03/21 06:09:44;;;;;;;1.10;1.00;;;18.30;88.70;;;;;;5024546;28;20049;-67
2023/03/21 06:12:11;;;;;;;1.40;1.00;;;18.30;88.70;;;;;;5025353;28;20079;-67
2023/03/21 06:14:37;;;;;;;2.20;1.33;;;18.30;88.70;;;;;;5025130;28;20049;-67
2023/03/21 06:17:02;;;;;;;1.55;0.98;;;18.30;89.30;;;;;;5024690;28;20042;-67
2023/03/21 06:19:28;;;;;;;1.23;0.82;;;18.20;88.70;;;;;;5025958;28;20053;-67
2023/03/21 06:21:54;;;;;;;1.75;1.20;;;18.20;88.70;;;;;;5024804;28;20103;-67
2023/03/21 06:24:20;;;;;;;1.77;0.95;;;18.20;88.70;;;;;;5023807;28;20467;-67
2023/03/21 06:26:47;;;;;;;1.25;1.00;;;18.20;88.60;;;;;;5023730;28;20068;-67
2023/03/21 06:29:13;;;;;;;1.40;1.00;;;18.30;88.70;;;;;;5025582;28;20135;-67
2023/03/21 06:31:39;;;;;;;1.25;0.90;;;18.20;88.70;;;;;;5033804;28;20495;-67
2023/03/21 06:34:05;;;;;;;1.33;0.93;;;18.20;88.70;;;;;;5024101;28;20081;-67
2023/03/21 06:36:30;;;;;;;1.35;0.90;;;18.30;88.70;;;;;;5025886;28;20111;-67
2023/03/21 06:38:56;;;;;;;1.75;1.00;;;18.30;88.70;;;;;;5022598;28;20046;-67
2023/03/21 06:41:22;;;;;;;0.82;0.63;;;18.30;88.60;;;;;;5024526;28;20049;-67
2023/03/21 06:43:47;;;;;;;1.25;0.80;;;18.40;88.60;;;;;;5025117;28;20038;-67
2023/03/21 06:46:13;;;;;;;8.10;1.50;;;18.50;88.50;;;;;;5036032;28;20164;-68
2023/03/21 06:48:43;;;;;;;8.10;1.92;;;18.60;88.30;;;;;;5025355;28;20079;-68
2023/03/21 06:51:10;;;;;;;14.77;2.72;;;18.70;88.00;;;;;;5023711;28;20049;-68
2023/03/21 06:53:36;;;;;;;21.92;5.03;;;18.90;87.70;;;;;;5023384;28;20072;-68
2023/03/21 06:56:02;;;;;;;19.88;4.70;;;18.90;87.70;;;;;;5025227;28;20038;-67
2023/03/21 06:58:28;;;;;;;19.73;4.30;;;19.00;87.50;;;;;;5024205;28;20091;-68
2023/03/21 07:00:53;;;;;;;21.17;5.30;;;19.00;87.60;;;;;;5024652;28;20056;-67
2023/03/21 07:03:19;;;;;;;23.67;4.68;;;19.00;87.70;;;;;;5025525;28;20168;-67
2023/03/21 07:05:45;;;;;;;14.75;4.28;;;18.90;87.80;;;;;;5022746;28;20107;-67
2023/03/21 07:08:12;;;;;;;18.35;4.18;;;18.90;87.90;;;;;;5024004;28;20447;-67
2023/03/21 07:10:41;;;;;;;16.60;4.57;;;18.90;88.00;;;;;;5024604;28;20045;-67
2023/03/21 07:13:06;;;;;;;18.85;4.82;;;18.90;88.10;;;;;;5023934;28;20045;-67
2023/03/21 07:15:33;;;;;;;12.80;3.75;;;18.80;88.10;;;;;;5025025;28;20075;-68
2023/03/21 07:17:59;;;;;;;17.70;4.53;;;18.80;88.20;;;;;;5024676;28;20090;-67
2023/03/21 07:20:26;;;;;;;15.85;4.28;;;18.80;88.30;;;;;;5024335;28;20081;-68
2023/03/21 07:22:52;;;;;;;14.23;4.13;;;18.80;88.20;;;;;;5023194;28;20045;-68
2023/03/21 07:25:18;;;;;;;14.90;4.10;;;18.90;88.30;;;;;;5023724;28;20050;-68
2023/03/21 07:27:45;;;;;;;11.98;3.60;;;18.90;88.40;;;;;;5022361;28;20192;-67
2023/03/21 07:30:11;;;;;;;17.77;4.40;;;18.90;88.30;;;;;;5023980;28;20045;-67
2023/03/21 07:32:38;;;;;;;10.95;3.92;;;19.00;88.10;;;;;;5023758;28;20088;-67
2023/03/21 07:35:05;;;;;;;11.40;4.20;;;18.90;88.20;;;;;;5023883;28;20049;-67
2023/03/21 07:37:31;;;;;;;11.00;3.97;;;18.90;88.40;;;;;;5031409;28;20052;-68
2023/03/21 07:39:57;;;;;;;11.25;3.50;;;18.90;88.60;;;;;;5037281;28;20603;-68
2023/03/21 07:42:23;;;;;;;11.63;3.47;;;18.90;88.70;;;;;;5033309;28;20044;-68
2023/03/21 07:44:49;;;;;;;8.82;3.50;;;18.90;88.80;;;;;;5026798;28;20045;-68
2023/03/21 07:47:15;;;;;;;15.82;3.80;;;18.90;88.90;;;;;;5032202;28;20056;-69
2023/03/21 07:49:41;;;;;;;10.38;3.63;;;18.90;88.90;;;;;;5022362;28;20476;-68
2023/03/21 07:52:06;;;;;;;8.07;3.30;;;18.90;89.00;;;;;;5023843;28;20132;-69
2023/03/21 07:54:32;;;;;;;6.30;2.83;;;18.90;89.00;;;;;;5021995;28;20085;-68
2023/03/21 07:56:58;;;;;;;8.55;3.38;;;18.80;89.00;;;;;;5023429;28;20063;-68
2023/03/21 07:59:24;;;;;;;6.40;2.65;;;18.80;89.00;;;;;;5024657;28;20041;-68
2023/03/21 08:01:49;;;;;;;7.07;2.70;;;18.90;89.60;;;;;;5024269;28;20399;-68
2023/03/21 08:04:15;;;;;;;7.45;2.83;;;18.90;89.00;;;;;;5023419;28;20045;-69
2023/03/21 08:06:41;;;;;;;5.90;2.28;;;18.90;89.00;;;;;;5023030;28;20160;-68
2023/03/21 08:09:06;;;;;;;5.35;2.63;;;18.80;89.00;;;;;;5022710;28;20037;-68
2023/03/21 08:11:32;;;;;;;5.47;2.58;;;18.90;89.00;;;;;;5023809;28;20468;-69
2023/03/21 08:13:59;;;;;;;5.20;2.47;;;18.80;89.10;;;;;;5023299;28;20121;-69
2023/03/21 08:16:25;;;;;;;4.55;2.03;;;18.80;89.00;;;;;;5022859;28;20045;-68
2023/03/21 08:18:51;;;;;;;5.18;2.45;;;18.80;89.20;;;;;;5023664;28;20198;-68
2023/03/21 08:21:17;;;;;;;3.78;2.17;;;18.80;89.20;;;;;;5023458;28;20050;-68
2023/03/21 08:23:42;;;;;;;4.90;2.20;;;18.80;89.20;;;;;;5022366;28;20037;-69
2023/03/21 08:26:10;;;;;;;5.82;2.47;;;18.80;89.30;;;;;;5023107;28;20664;-69
2023/03/21 08:28:38;;;;;;;4.40;1.88;;;18.80;89.20;;;;;;5023713;28;20111;-68
2023/03/21 08:31:10;;;;;;;4.22;2.10;;;18.90;89.20;;;;;;5022976;28;20777;-68
2023/03/21 08:33:37;;;;;;;5.85;2.08;;;18.90;89.20;;;;;;5023684;28;20048;-68
2023/03/21 08:36:04;;;;;;;4.60;2.03;;;18.90;89.20;;;;;;5023419;28;20037;-68
2023/03/21 08:38:32;;;;;;;3.55;1.60;;;18.90;89.20;;;;;;5022228;28;20329;-68
2023/03/21 08:41:01;;;;;;;3.15;1.58;;;18.90;89.20;;;;;;5023672;28;20053;-68
2023/03/21 08:43:28;;;;;;;4.60;2.00;;;18.90;89.30;;;;;;5024257;28;20061;-68
2023/03/21 08:45:54;;;;;;;3.13;1.60;;;18.90;89.30;;;;;;5032628;28;20056;-68
2023/03/21 08:48:20;;;;;;;2.88;1.55;;;18.90;89.30;;;;;;5023954;28;20550;-68
2023/03/21 08:50:46;;;;;;;1.88;1.10;;;18.90;89.20;;;;;;5023758;28;20049;-68
2023/03/21 08:53:12;;;;;;;3.65;1.30;;;18.80;89.30;;;;;;5021228;28;20105;-68
2023/03/21 08:55:37;;;;;;;3.17;1.40;;;18.80;89.40;;;;;;5023114;28;20124;-68
2023/03/21 08:58:05;;;;;;;2.83;1.35;;;18.80;89.30;;;;;;5023968;28;20641;-67
2023/03/21 09:00:31;;;;;;;3.85;1.40;;;18.90;89.40;;;;;;5023483;28;20396;-68
2023/03/21 09:02:57;;;;;;;3.10;1.40;;;18.80;89.30;;;;;;5023314;28;20091;-68
2023/03/21 09:05:27;;;;;;;2.78;1.30;;;18.90;89.30;;;;;;5023508;28;20046;-68
2023/03/21 09:07:53;;;;;;;2.63;1.20;;;18.90;89.40;;;;;;5022395;28;20042;-68
2023/03/21 09:10:21;;;;;;;2.08;1.10;;;18.90;89.40;;;;;;5023475;28;20451;-68
2023/03/21 09:12:51;;;;;;;5.97;1.23;;;18.90;89.50;;;;;;5023588;28;20042;-68
2023/03/21 09:15:20;;;;;;;1.88;0.93;;;18.90;89.30;;;;;;5023452;28;20147;-68
2023/03/21 09:17:49;;;;;;;2.25;1.00;;;18.90;89.20;;;;;;5022260;28;20137;-68
2023/03/21 09:20:19;;;;;;;2.40;0.95;;;18.90;89.10;;;;;;5021081;28;20143;-68
2023/03/21 09:22:51;;;;;;;2.67;1.00;;;18.90;89.10;;;;;;5021151;28;20478;-68
2023/03/21 09:25:18;;;;;;;1.98;0.93;;;19.00;89.10;;;;;;5022754;28;20045;-72
2023/03/21 09:27:44;;;;;;;2.38;1.00;;;18.90;89.10;;;;;;5023846;28;20042;-72
2023/03/21 09:30:12;;;;;;;8.38;0.85;;;19.10;89.10;;;;;;5026815;28;20052;-74
2023/03/21 09:32:39;;;;;;;5.30;1.20;;;19.10;89.10;;;;;;5026547;28;20045;-70
2023/03/21 09:35:06;;;;;;;3.28;1.08;;;19.10;89.60;;;;;;5025625;28;21051;-70
2023/03/21 09:37:32;;;;;;;3.33;0.80;;;19.10;89.50;;;;;;5023979;28;20609;-70
2023/03/21 09:39:58;;;;;;;4.03;0.90;;;19.10;89.50;;;;;;5025529;28;20037;-70
2023/03/21 09:43:00;;;;;;;2.03;0.90;;;19.10;89.50;;;;;;5025549;28;20104;-69
2023/03/21 09:45:41;;;;;;;2.30;0.85;;;19.10;89.50;;;;;;5029734;28;20045;-69
2023/03/21 09:48:18;;;;;;;3.90;0.90;;;19.00;89.40;;;;;;5043930;28;20045;-69
2023/03/21 09:50:45;;;;;;;4.47;1.10;;;19.00;89.70;;;;;;5045979;28;20056;-69
2023/03/21 09:53:17;;;;;;;4.10;1.13;;;19.00;90.00;;;;;;5044506;28;20055;-69
2023/03/21 09:55:43;;;;;;;3.72;1.20;;;19.00;90.00;;;;;;5045682;28;20041;-69
2023/03/21 09:58:39;;;;;;;1.90;0.90;;;19.00;90.00;;;;;;5046093;28;20040;-68
2023/03/21 10:01:21;;;;;;;3.28;0.90;;;19.00;90.00;;;;;;5045910;28;20049;-69
2023/03/21 10:03:49;;;;;;;2.60;0.85;;;19.00;90.00;;;;;;5045533;28;20110;-68
2023/03/21 10:06:16;;;;;;;4.47;1.05;;;19.00;89.90;;;;;;5045989;28;20053;-68
2023/03/21 10:08:46;;;;;;;2.92;1.00;;;19.00;89.80;;;;;;5044395;28;20045;-69
2023/03/21 10:11:20;;;;;;;2.58;0.95;;;19.00;89.80;;;;;;5045466;28;20053;-69
2023/03/21 10:13:53;;;;;;;6.13;1.17;;;19.00;89.70;;;;;;5046265;28;20040;-69
2023/03/21 10:16:28;;;;;;;4.53;1.17;;;19.00;89.70;;;;;;5045685;28;20361;-69
2023/03/21 10:18:55;;;;;;;5.18;1.08;;;19.00;89.70;;;;;;5046286;28;20399;-69
2023/03/21 10:21:23;;;;;;;1.75;0.88;;;19.00;89.60;;;;;;5045871;28;20045;-69
2023/03/21 10:23:52;;;;;;;4.38;1.23;;;19.00;89.60;;;;;;5042688;28;20732;-68
2023/03/21 10:26:20;;;;;;;2.75;1.05;;;19.00;89.70;;;;;;5045395;28;20099;-69
2023/03/21 10:28:47;;;;;;;2.70;0.90;;;19.00;89.70;;;;;;5046020;28;20384;-69
2023/03/21 10:31:19;;;;;;;2.35;1.10;;;19.00;89.60;;;;;;5060684;28;20052;-69
2023/03/21 10:33:48;;;;;;;4.68;1.30;;;19.00;89.60;;;;;;5045614;28;20045;-69
2023/03/21 10:36:28;;;;;;;5.65;1.30;;;19.00;89.60;;;;;;5045406;28;20052;-69
2023/03/21 10:39:04;;;;;;;4.65;1.13;;;19.00;89.60;;;;;;5044186;28;20041;-69
2023/03/21 10:41:31;;;;;;;4.72;1.30;;;19.00;89.60;;;;;;5045059;28;20106;-69
2023/03/21 10:44:08;;;;;;;4.85;1.20;;;19.00;89.50;;;;;;5042664;28;20100;-69
2023/03/21 10:46:34;;;;;;;5.10;1.20;;;19.00;89.50;;;;;;5033514;28;20045;-69
2023/03/21 10:49:00;;;;;;;7.25;1.75;;;19.00;90.00;;;;;;5044876;28;20047;-69
2023/03/21 10:51:36;;;;;;;10.27;1.38;;;19.00;89.50;;;;;;5042665;28;20066;-68
2023/03/21 10:54:07;;;;;;;8.52;1.58;;;19.00;89.50;;;;;;5044393;28;20527;-69
2023/03/21 10:56:39;;;;;;;10.98;1.63;;;19.00;89.50;;;;;;5044940;28;20037;-68
2023/03/21 10:59:07;;;;;;;4.30;1.63;;;19.00;89.50;;;;;;5036483;28;20048;-68
2023/03/21 11:01:41;;;;;;;6.85;1.73;;;19.00;89.50;;;;;;5043711;28;20075;-69
2023/03/21 11:04:35;;;;;;;4.50;1.42;;;19.00;89.50;;;;;;5044530;28;20153;-69
2023/03/21 11:07:08;;;;;;;11.50;1.80;;;19.00;89.50;;;;;;5021027;28;20057;-68
2023/03/21 11:09:58;;;;;;;9.07;2.05;;;19.00;89.40;;;;;;5031203;28;20098;-69
2023/03/21 11:12:37;;;;;;;6.70;1.30;;;19.00;89.50;;;;;;5023537;28;20545;-69
2023/03/21 11:15:27;;;;;;;9.63;1.35;;;19.00;89.50;;;;;;5024274;28;20352;-68
2023/03/21 11:17:54;;;;;;;7.35;1.73;;;19.00;89.40;;;;;;5016368;28;20043;-68
2023/03/21 11:20:20;;;;;;;5.30;1.67;;;19.00;89.40;;;;;;5043219;28;20095;-68
2023/03/21 11:22:47;;;;;;;7.13;1.60;;;19.00;89.40;;;;;;5043562;28;20053;-69
2023/03/21 11:25:26;;;;;;;7.38;1.70;;;19.00;89.50;;;;;;5034440;28;20040;-68
2023/03/21 11:27:55;;;;;;;7.85;1.45;;;19.00;89.40;;;;;;5025013;28;20353;-69
2023/03/21 11:30:26;;;;;;;4.50;1.45;;;19.00;89.40;;;;;;5022933;28;20096;-69
2023/03/21 11:32:57;;;;;;;6.82;1.88;;;19.00;89.40;;;;;;5037162;28;20045;-68
2023/03/21 11:35:31;;;;;;;6.55;1.63;;;19.00;89.40;;;;;;5042952;28;20049;-69
2023/03/21 11:37:57;;;;;;;6.03;1.80;;;19.00;89.40;;;;;;5042930;28;20128;-68
2023/03/21 11:40:25;;;;;;;5.53;1.42;;;19.00;89.40;;;;;;5043812;28;20072;-68
2023/03/21 11:43:00;;;;;;;5.20;1.60;;;19.00;89.30;;;;;;5043164;28;20084;-68
2023/03/21 11:45:35;;;;;;;9.45;1.85;;;19.00;89.30;;;;;;5036796;28;20366;-68
2023/03/21 11:48:10;;;;;;;6.22;1.23;;;19.00;89.30;;;;;;5027044;28;20124;-68
2023/03/21 11:50:46;;;;;;;6.13;1.40;;;19.00;89.30;;;;;;5023260;28;20045;-68
2023/03/21 11:53:30;;;;;;;5.90;1.25;;;19.00;89.30;;;;;;5023028;28;20046;-69
2023/03/21 11:56:07;;;;;;;6.25;1.42;;;19.10;89.40;;;;;;5038905;28;20446;-68
2023/03/21 11:58:45;;;;;;;5.05;1.50;;;19.10;89.40;;;;;;5043980;28;20408;-68
2023/03/21 12:01:29;;;;;;;3.42;1.35;;;19.10;89.50;;;;;;5043767;28;20045;-68
2023/03/21 12:04:17;;;;;;;4.00;1.67;;;19.00;89.30;;;;;;5043953;28;20045;-68
2023/03/21 12:06:53;;;;;;;6.68;1.60;;;19.10;89.40;;;;;;5042742;28;20052;-68
2023/03/21 12:09:28;;;;;;;8.70;1.58;;;19.10;89.70;;;;;;5043767;28;20045;-69
2023/03/21 12:12:02;;;;;;;6.60;1.80;;;19.10;89.50;;;;;;5042600;28;20415;-69
2023/03/21 12:14:33;;;;;;;;;;;19.00;89.50;;;;;;5043790;28;20627;-69
2023/03/21 12:17:09;;;;;;;7.18;1.90;;;19.10;89.60;;;;;;5034709;28;20306;-68
2023/03/21 12:20:16;;;;;;;5.47;1.67;;;19.10;89.60;;;;;;5023285;28;20455;-69
2023/03/21 12:23:14;;;;;;;3.22;1.40;;;19.10;89.50;;;;;;4991585;28;20121;-68
2023/03/21 12:25:55;;;;;;;5.85;1.60;;;19.10;89.50;;;;;;5000806;28;20060;-69
2023/03/21 12:28:48;;;;;;;4.53;1.80;;;19.10;89.50;;;;;;5034363;28;20060;-69
2023/03/21 12:31:23;;;;;;;6.40;1.55;;;19.10;89.50;;;;;;5025950;28;20057;-68
2023/03/21 12:34:07;;;;;;;5.78;1.52;;;19.10;89.50;;;;;;5023736;28;20397;-68
2023/03/21 12:36:52;;;;;;;5.55;1.60;;;19.10;89.50;;;;;;5022733;28;20059;-69
2023/03/21 12:39:31;;;;;;;5.50;1.60;;;19.10;89.50;;;;;;5031163;28;20456;-68
2023/03/21 12:42:09;;;;;;;4.95;1.67;;;19.10;89.50;;;;;;5033732;28;20120;-68
2023/03/21 12:44:48;;;;;;;4.68;1.60;;;19.10;89.50;;;;;;5039073;28;20096;-68
2023/03/21 12:47:22;;;;;;;5.53;1.73;;;19.10;89.50;;;;;;5032086;28;20112;-68
2023/03/21 12:49:55;;;;;;;9.10;1.98;;;19.10;89.50;;;;;;5023648;28;20065;-68
2023/03/21 12:52:23;;;;;;;5.78;1.80;;;19.10;89.50;;;;;;5022196;28;20401;-68
2023/03/21 12:55:09;;;;;;;4.95;1.80;;;19.10;89.60;;;;;;5024296;28;20400;-68
2023/03/21 12:57:46;;;;;;;7.22;1.88;;;19.00;89.50;;;;;;5023521;28;20205;-68
2023/03/21 13:00:15;;;;;;;4.10;1.60;;;19.10;89.60;;;;;;5023337;28;20077;-68
2023/03/21 13:02:52;;;;;;;2.88;1.50;;;19.00;89.50;;;;;;5024175;28;20654;-68